Terminal Aerodrome Forecast
Issued by NWS

Home | Current Version | Previous Version | Text Only | Print | Product List | Glossary On
Versions: 1 2 3 4 5 6 7 8 9 10 11 12 13 14 15 16 17 18 19 20 21 22 23 24 25 26 27 28 29 30 31
400
FTUS41 KBOX 070532
TAFBAF
TAF
KBAF 070532Z 0706/0806 18006KT P6SM FEW200
     FM071100 VRB03KT P6SM FEW080 SCT250
     FM080500 04006KT P6SM BKN250=

USA.gov is the U.S. government's official web portal to all federal, state and local government web resources and services.